createdAt,value
2022-10-14T00:01:18.047Z,25.73
2022-10-14T00:03:47.752Z,25.27
2022-10-14T00:06:17.933Z,26.27
2022-10-14T00:08:45.523Z,25.90
2022-10-14T00:11:17.363Z,25.48
2022-10-14T00:13:46.840Z,25.50
2022-10-14T00:16:28.306Z,25.40
2022-10-14T00:18:55.326Z,26.13
2022-10-14T00:21:24.972Z,24.77
2022-10-14T00:23:55.319Z,25.10
2022-10-14T00:26:31.332Z,26.42
2022-10-14T00:28:59.365Z,25.55
2022-10-14T00:31:26.843Z,26.77
2022-10-14T00:33:53.584Z,24.02
2022-10-14T00:36:22.014Z,25.23
2022-10-14T00:38:49.124Z,25.15
2022-10-14T00:41:22.719Z,24.50
2022-10-14T00:44:27.672Z,27.05
2022-10-14T00:46:58.662Z,27.25
2022-10-14T00:49:32.031Z,25.40
2022-10-14T00:52:11.238Z,26.25
2022-10-14T00:54:42.590Z,26.45
2022-10-14T00:57:10.303Z,26.00
2022-10-14T00:59:36.918Z,24.25
2022-10-14T01:02:06.387Z,24.55
2022-10-14T01:04:34.145Z,24.38
2022-10-14T01:07:12.953Z,24.13
2022-10-14T01:09:50.843Z,24.85
2022-10-14T01:12:29.224Z,24.75
2022-10-14T01:15:36.582Z,24.92
2022-10-14T01:18:36.352Z,24.60
2022-10-14T01:21:25.131Z,22.70
2022-10-14T01:24:20.415Z,23.02
2022-10-14T01:27:18.375Z,23.45
2022-10-14T01:30:11.859Z,22.60
2022-10-14T01:32:49.004Z,23.15
2022-10-14T01:35:29.653Z,22.10
2022-10-14T01:38:04.654Z,22.83
2022-10-14T01:40:44.918Z,21.52
2022-10-14T01:43:13.535Z,22.08
2022-10-14T01:45:43.655Z,21.40
2022-10-14T01:48:13.458Z,21.25
2022-10-14T01:50:44.627Z,21.50
2022-10-14T01:53:34.191Z,20.50
2022-10-14T01:56:02.997Z,21.08
2022-10-14T01:58:34.546Z,19.85
2022-10-14T02:01:04.427Z,19.63
2022-10-14T02:03:57.370Z,20.85
2022-10-14T02:06:36.330Z,20.45
2022-10-14T02:09:11.175Z,20.65
2022-10-14T02:11:54.819Z,20.55
2022-10-14T02:14:38.338Z,20.77
2022-10-14T02:17:26.768Z,20.50
2022-10-14T02:19:58.404Z,20.63
2022-10-14T02:22:46.911Z,20.75
2022-10-14T02:25:27.136Z,19.80
2022-10-14T02:27:54.660Z,22.20
2022-10-14T02:30:22.398Z,20.48
2022-10-14T02:32:50.195Z,20.98
2022-10-14T02:35:20.028Z,20.17
2022-10-14T02:37:49.348Z,21.23
2022-10-14T02:40:22.569Z,21.70
2022-10-14T02:42:50.313Z,21.25
2022-10-14T02:45:17.441Z,21.63
2022-10-14T02:47:46.987Z,20.70
2022-10-14T02:50:13.647Z,20.13
2022-10-14T02:52:40.235Z,21.00
2022-10-14T02:55:07.366Z,21.83
2022-10-14T02:57:34.373Z,21.38
2022-10-14T03:00:00.964Z,20.63
2022-10-14T03:02:27.611Z,20.98
2022-10-14T03:04:56.906Z,21.35
2022-10-14T03:07:24.188Z,21.58
2022-10-14T03:09:50.834Z,20.95
2022-10-14T03:12:17.444Z,20.17
2022-10-14T03:14:44.075Z,21.92
2022-10-14T03:17:11.522Z,20.85
2022-10-14T03:19:38.090Z,21.63
2022-10-14T03:22:04.806Z,21.05
2022-10-14T03:24:31.466Z,20.85
2022-10-14T03:26:58.289Z,19.50
2022-10-14T03:29:25.149Z,20.58
2022-10-14T03:31:51.884Z,20.73
2022-10-14T03:34:19.026Z,20.63
2022-10-14T03:36:45.674Z,18.27
2022-10-14T03:39:12.394Z,20.73
2022-10-14T03:41:39.648Z,20.15
2022-10-14T03:44:08.883Z,17.88
2022-10-14T03:46:35.486Z,19.25
2022-10-14T03:49:02.121Z,18.85
2022-10-14T03:51:28.744Z,19.98
2022-10-14T03:53:55.286Z,20.10
2022-10-14T03:56:22.488Z,20.30
2022-10-14T03:58:49.301Z,19.13
2022-10-14T04:01:16.111Z,19.38
2022-10-14T04:03:42.922Z,19.08
2022-10-14T04:06:09.581Z,17.83
2022-10-14T04:08:36.205Z,17.85
2022-10-14T04:11:02.847Z,17.77
2022-10-14T04:13:29.423Z,16.77
2022-10-14T04:15:56.275Z,16.83
2022-10-14T04:18:22.812Z,17.23
2022-10-14T04:20:49.386Z,16.05
2022-10-14T04:23:18.305Z,16.70
2022-10-14T04:25:47.330Z,16.27
2022-10-14T04:28:16.505Z,15.88
2022-10-14T04:30:43.192Z,15.50
2022-10-14T04:33:09.808Z,16.17
2022-10-14T04:35:36.422Z,16.33
2022-10-14T04:38:03.175Z,14.95
2022-10-14T04:40:34.130Z,15.55
2022-10-14T04:43:00.885Z,15.30
2022-10-14T04:45:27.928Z,15.38
2022-10-14T04:47:54.523Z,15.95
2022-10-14T04:50:21.985Z,13.98
2022-10-14T04:52:48.661Z,15.38
2022-10-14T04:55:17.783Z,15.55
2022-10-14T04:57:44.578Z,15.23
2022-10-14T05:00:12.602Z,14.65
2022-10-14T05:02:42.117Z,14.55
2022-10-14T05:05:09.351Z,14.70
2022-10-14T05:07:36.759Z,14.65
2022-10-14T05:10:04.785Z,14.70
2022-10-14T05:12:32.848Z,13.88
2022-10-14T05:15:05.517Z,14.05
2022-10-14T05:17:33.060Z,14.00
2022-10-14T05:19:59.826Z,14.20
2022-10-14T05:22:29.529Z,13.60
2022-10-14T05:24:56.225Z,12.85
2022-10-14T05:27:23.215Z,12.63
2022-10-14T05:29:49.812Z,12.15
2022-10-14T05:32:16.422Z,12.13
2022-10-14T05:34:43.076Z,12.32
2022-10-14T05:37:10.182Z,12.45
2022-10-14T05:39:37.011Z,11.43
2022-10-14T05:42:03.958Z,11.52
2022-10-14T05:44:30.634Z,11.10
2022-10-14T05:46:59.508Z,11.73
2022-10-14T05:49:26.289Z,10.60
2022-10-14T05:51:55.339Z,10.38
2022-10-14T05:54:21.982Z,11.25
2022-10-14T05:56:48.593Z,10.85
2022-10-14T05:59:15.299Z,11.18
2022-10-14T06:01:44.283Z,10.38
2022-10-14T06:04:20.528Z,10.95
2022-10-14T06:06:47.273Z,10.43
2022-10-14T06:09:14.712Z,10.95
2022-10-14T06:11:41.336Z,9.93
2022-10-14T06:14:08.451Z,10.43
2022-10-14T06:16:37.304Z,10.15
2022-10-14T06:19:04.127Z,9.98
2022-10-14T06:21:30.880Z,10.02
2022-10-14T06:23:57.438Z,9.85
2022-10-14T06:26:24.241Z,9.35
2022-10-14T06:28:50.914Z,9.68
2022-10-14T06:31:17.585Z,9.30
2022-10-14T06:33:45.189Z,9.50
2022-10-14T06:36:12.183Z,9.38
2022-10-14T06:38:39.227Z,8.63
2022-10-14T06:41:06.179Z,9.18
2022-10-14T06:43:32.834Z,10.00
2022-10-14T06:45:59.710Z,8.95
2022-10-14T06:48:29.526Z,8.77
2022-10-14T06:50:59.136Z,8.10
2022-10-14T06:53:26.541Z,8.90
2022-10-14T06:56:05.250Z,8.07
2022-10-14T06:58:33.032Z,8.68
2022-10-14T07:01:07.572Z,9.15
2022-10-14T07:03:38.907Z,7.57
2022-10-14T07:06:07.238Z,7.88
2022-10-14T07:08:34.214Z,7.57
2022-10-14T07:11:01.168Z,7.68
2022-10-14T07:13:28.706Z,9.07
2022-10-14T07:15:55.341Z,7.35
2022-10-14T07:18:22.387Z,7.25
2022-10-14T07:20:51.365Z,7.35
2022-10-14T07:23:20.494Z,7.35
2022-10-14T07:25:47.175Z,7.32
2022-10-14T07:28:14.021Z,7.55
2022-10-14T07:30:41.092Z,7.20
2022-10-14T07:33:07.727Z,7.35
2022-10-14T07:35:38.290Z,7.07
2022-10-14T07:38:05.108Z,7.75
2022-10-14T07:40:32.157Z,8.13
2022-10-14T07:42:59.034Z,7.10
2022-10-14T07:45:27.746Z,6.95
2022-10-14T07:47:56.743Z,6.85
2022-10-14T07:50:23.724Z,7.35
2022-10-14T07:52:58.935Z,6.80
2022-10-14T07:55:27.801Z,7.35
2022-10-14T07:57:54.430Z,7.45
2022-10-14T08:00:21.484Z,6.78
2022-10-14T08:02:48.135Z,7.65
2022-10-14T08:08:04.533Z,6.78
2022-10-14T08:10:33.924Z,10.00
2022-10-14T08:13:00.691Z,7.88
2022-10-14T08:15:29.908Z,7.30
2022-10-14T08:17:57.064Z,7.40
2022-10-14T08:20:26.228Z,6.80
2022-10-14T08:22:56.235Z,9.10
2022-10-14T08:25:23.007Z,7.45
2022-10-14T08:27:51.249Z,7.55
2022-10-14T08:30:21.496Z,7.18
2022-10-14T08:32:50.744Z,7.43
2022-10-14T08:35:17.466Z,7.28
2022-10-14T08:37:44.101Z,7.32
2022-10-14T08:40:19.325Z,7.60
2022-10-14T08:43:03.509Z,7.00
2022-10-14T08:45:37.481Z,7.28
2022-10-14T08:48:24.661Z,7.15
2022-10-14T08:51:04.861Z,7.25
2022-10-14T08:53:40.537Z,7.90
2022-10-14T08:56:13.899Z,7.35
2022-10-14T08:58:50.699Z,7.03
2022-10-14T09:01:26.671Z,7.68
2022-10-14T09:04:00.797Z,7.18
2022-10-14T09:06:30.992Z,7.30
2022-10-14T09:09:05.188Z,7.45
2022-10-14T09:11:42.716Z,6.90
2022-10-14T09:14:18.293Z,7.07
2022-10-14T09:16:50.452Z,7.15
2022-10-14T09:19:27.131Z,7.07
2022-10-14T09:21:55.084Z,7.07
2022-10-14T09:24:31.170Z,7.20
2022-10-14T09:27:03.241Z,8.10
2022-10-14T09:29:32.966Z,7.10
2022-10-14T09:32:04.546Z,7.80
2022-10-14T09:34:46.292Z,7.30
2022-10-14T09:37:36.048Z,7.55
2022-10-14T09:40:29.245Z,7.50
2022-10-14T09:43:04.868Z,7.13
2022-10-14T09:45:47.821Z,7.05
2022-10-14T09:48:43.631Z,7.50
2022-10-14T09:51:32.218Z,7.90
2022-10-14T09:54:04.142Z,7.63
2022-10-14T09:56:42.944Z,8.30
2022-10-14T09:59:21.379Z,7.30
2022-10-14T10:01:55.553Z,7.13
2022-10-14T10:04:43.017Z,7.65
2022-10-14T10:07:37.093Z,7.88
2022-10-14T10:10:18.877Z,7.97
2022-10-14T10:12:47.384Z,7.63
2022-10-14T10:15:20.151Z,8.13
2022-10-14T10:17:47.973Z,8.02
2022-10-14T10:20:33.931Z,7.57
2022-10-14T10:23:25.745Z,7.50
2022-10-14T10:25:52.867Z,6.97
2022-10-14T10:28:31.813Z,7.75
2022-10-14T10:31:18.333Z,7.63
2022-10-14T10:34:26.475Z,7.40
2022-10-14T10:37:16.264Z,7.05
2022-10-14T10:40:32.969Z,7.50
2022-10-14T10:43:08.644Z,7.45
2022-10-14T10:45:50.493Z,7.18
2022-10-14T10:48:41.471Z,6.78
2022-10-14T10:51:30.976Z,7.80
2022-10-14T10:54:06.829Z,6.45
2022-10-14T10:56:38.806Z,5.85
2022-10-14T10:59:21.015Z,6.22
2022-10-14T11:02:14.432Z,6.25
2022-10-14T11:05:12.709Z,6.20
2022-10-14T11:08:27.060Z,5.53
2022-10-14T11:11:43.992Z,5.50
2022-10-14T11:14:25.519Z,5.13
2022-10-14T11:16:57.535Z,5.35
2022-10-14T11:19:50.959Z,4.93
2022-10-14T11:22:46.432Z,5.40
2022-10-14T11:25:33.499Z,4.93
2022-10-14T11:28:10.942Z,5.07
2022-10-14T11:30:44.848Z,4.43
2022-10-14T11:33:28.390Z,5.03
2022-10-14T11:36:01.274Z,4.40
2022-10-14T11:38:48.459Z,4.70
2022-10-14T11:41:30.401Z,4.40
2022-10-14T11:44:27.879Z,4.38
2022-10-14T11:46:59.987Z,4.30
2022-10-14T11:49:38.204Z,4.30
2022-10-14T11:52:18.023Z,4.07
2022-10-14T11:54:51.432Z,4.38
2022-10-14T11:57:34.207Z,4.20
2022-10-14T12:00:12.426Z,4.00
2022-10-14T12:02:52.494Z,3.53
2022-10-14T12:05:44.077Z,3.58
2022-10-14T12:08:46.479Z,3.97
2022-10-14T12:11:37.934Z,4.00
2022-10-14T12:14:18.273Z,4.40
2022-10-14T12:16:49.269Z,4.00
2022-10-14T12:19:28.327Z,3.90
2022-10-14T12:22:11.816Z,4.47
2022-10-14T12:24:45.437Z,4.25
2022-10-14T12:27:15.867Z,4.70
2022-10-14T12:29:51.434Z,4.00
2022-10-14T12:32:21.478Z,5.13
2022-10-14T12:34:54.103Z,4.93
2022-10-14T12:37:38.934Z,5.18
2022-10-14T12:40:06.876Z,5.25
2022-10-14T12:42:52.444Z,4.90
2022-10-14T12:45:22.957Z,6.20
2022-10-14T12:48:28.074Z,5.32
2022-10-14T12:51:06.333Z,5.43
2022-10-14T12:53:36.789Z,5.43
2022-10-14T12:56:05.202Z,4.70
2022-10-14T12:58:41.151Z,5.07
2022-10-14T13:01:21.419Z,4.70
2022-10-14T13:03:59.689Z,4.63
2022-10-14T13:06:37.052Z,4.88
2022-10-14T13:09:12.790Z,5.50
2022-10-14T13:11:43.221Z,5.13
2022-10-14T13:14:54.855Z,4.68
2022-10-14T13:17:46.835Z,5.05
2022-10-14T13:20:35.652Z,4.20
2022-10-14T13:23:31.505Z,4.10
2022-10-14T13:26:20.195Z,4.50
2022-10-14T13:29:12.869Z,4.55
2022-10-14T13:32:00.162Z,5.05
2022-10-14T13:34:29.847Z,4.90
2022-10-14T13:37:32.350Z,5.30
2022-10-14T13:40:18.044Z,7.43
2022-10-14T13:42:49.186Z,7.35
2022-10-14T13:45:17.899Z,6.47
2022-10-14T13:47:48.247Z,6.88
2022-10-14T13:50:18.507Z,6.20
2022-10-14T13:53:14.938Z,6.60
2022-10-14T13:55:54.439Z,5.93
2022-10-14T13:58:25.712Z,6.80
2022-10-14T14:01:02.487Z,6.53
2022-10-14T14:03:41.917Z,7.38
2022-10-14T14:06:18.250Z,7.20
2022-10-14T14:08:49.690Z,7.20
2022-10-14T14:11:33.433Z,7.40
2022-10-14T14:14:04.415Z,7.70
2022-10-14T14:16:36.004Z,8.45
2022-10-14T14:19:08.703Z,8.20
2022-10-14T14:21:36.218Z,10.77
2022-10-14T14:24:11.337Z,9.63
2022-10-14T14:26:41.309Z,9.50
2022-10-14T14:29:21.528Z,9.70
2022-10-14T14:32:07.857Z,9.77
2022-10-14T14:34:37.100Z,10.43
2022-10-14T14:37:43.533Z,10.05
2022-10-14T14:40:07.282Z,9.38
2022-10-14T14:42:40.133Z,10.70
2022-10-14T14:45:31.301Z,9.63
2022-10-14T14:48:02.766Z,10.05
2022-10-14T14:50:44.344Z,9.60
2022-10-14T14:53:16.727Z,10.32
2022-10-14T14:55:55.504Z,10.95
2022-10-14T14:58:37.619Z,10.30
2022-10-14T15:01:07.293Z,10.77
2022-10-14T15:04:13.466Z,9.95
2022-10-14T15:06:39.716Z,10.30
2022-10-14T15:09:24.390Z,10.20
2022-10-14T15:11:57.823Z,11.25
2022-10-14T15:14:47.948Z,10.13
2022-10-14T15:17:34.812Z,9.35
2022-10-14T15:20:33.329Z,9.77
2022-10-14T15:23:03.458Z,9.80
2022-10-14T15:25:31.470Z,9.60
2022-10-14T15:28:02.501Z,9.82
2022-10-14T15:30:35.704Z,9.85
2022-10-14T15:33:24.065Z,10.50
2022-10-14T15:35:59.408Z,9.90
2022-10-14T15:38:26.811Z,9.63
2022-10-14T15:40:54.065Z,10.02
2022-10-14T15:43:24.042Z,10.20
2022-10-14T15:46:12.961Z,9.80
2022-10-14T15:48:48.026Z,10.77
2022-10-14T15:51:16.957Z,10.45
2022-10-14T15:53:44.183Z,11.13
2022-10-14T15:56:10.906Z,9.85
2022-10-14T15:58:39.881Z,9.93
2022-10-14T16:01:08.121Z,9.65
2022-10-14T16:03:36.018Z,10.35
2022-10-14T16:06:07.067Z,9.30
2022-10-14T16:08:34.144Z,10.45
2022-10-14T16:11:05.425Z,9.55
2022-10-14T16:13:32.270Z,9.45
2022-10-14T16:16:04.919Z,9.88
2022-10-14T16:18:33.849Z,9.93
2022-10-14T16:21:00.451Z,10.57
2022-10-14T16:23:29.605Z,10.68
2022-10-14T16:26:00.383Z,10.23
2022-10-14T16:28:27.155Z,10.65
2022-10-14T16:30:53.891Z,10.70
2022-10-14T16:33:22.037Z,11.57
2022-10-14T16:35:56.409Z,10.85
2022-10-14T16:38:24.357Z,9.82
2022-10-14T16:40:59.382Z,10.30
2022-10-14T16:43:26.921Z,10.00
2022-10-14T16:45:57.094Z,10.75
2022-10-14T16:48:26.173Z,9.90
2022-10-14T16:50:53.788Z,9.73
2022-10-14T16:53:39.322Z,10.38
2022-10-14T16:56:36.637Z,9.73
2022-10-14T16:59:03.831Z,9.73
2022-10-14T17:01:31.335Z,9.50
2022-10-14T17:03:58.321Z,10.45
2022-10-14T17:06:26.272Z,9.65
2022-10-14T17:08:53.219Z,10.50
2022-10-14T17:11:20.095Z,9.85
2022-10-14T17:13:47.166Z,10.15
2022-10-14T17:16:15.845Z,9.43
2022-10-14T17:18:43.120Z,11.48
2022-10-14T17:21:12.203Z,10.63
2022-10-14T17:23:43.854Z,10.82
2022-10-14T17:26:18.716Z,9.68
2022-10-14T17:28:47.270Z,10.13
2022-10-14T17:31:16.856Z,10.20
2022-10-14T17:33:43.636Z,12.02
2022-10-14T17:36:19.935Z,12.05
2022-10-14T17:38:48.276Z,13.88
2022-10-14T17:41:18.596Z,13.45
2022-10-14T17:43:49.610Z,13.07
2022-10-14T17:46:20.854Z,14.98
2022-10-14T17:48:56.299Z,14.98
2022-10-14T17:51:25.329Z,14.38
2022-10-14T17:53:58.284Z,14.90
2022-10-14T17:56:26.136Z,14.88
2022-10-14T17:58:57.520Z,16.38
2022-10-14T18:01:37.274Z,14.52
2022-10-14T18:04:11.099Z,14.13
2022-10-14T18:06:42.394Z,15.00
2022-10-14T18:09:10.137Z,14.70
2022-10-14T18:12:07.180Z,14.68
2022-10-14T18:14:27.912Z,13.98
2022-10-14T18:16:54.782Z,14.63
2022-10-14T18:19:21.559Z,14.90
2022-10-14T18:21:48.183Z,15.00
2022-10-14T18:24:14.877Z,14.50
2022-10-14T18:26:44.192Z,14.15
2022-10-14T18:29:11.134Z,13.75
2022-10-14T18:31:39.444Z,13.90
2022-10-14T18:34:09.529Z,13.27
2022-10-14T18:36:36.582Z,13.70
2022-10-14T18:39:08.686Z,13.57
2022-10-14T18:41:37.484Z,12.90
2022-10-14T18:44:05.759Z,13.02
2022-10-14T18:46:34.652Z,12.95
2022-10-14T18:49:02.495Z,13.75
2022-10-14T18:51:31.802Z,16.00
2022-10-14T18:54:00.781Z,16.75
2022-10-14T18:56:34.090Z,15.63
2022-10-14T18:59:05.688Z,15.48
2022-10-14T19:01:33.549Z,15.27
2022-10-14T19:04:00.556Z,16.08
2022-10-14T19:06:27.515Z,15.55
2022-10-14T19:08:54.447Z,15.93
2022-10-14T19:11:25.508Z,16.90
2022-10-14T19:13:54.903Z,16.45
2022-10-14T19:16:31.301Z,16.40
2022-10-14T19:19:12.090Z,15.38
2022-10-14T19:21:39.805Z,14.48
2022-10-14T19:24:10.353Z,15.95
2022-10-14T19:26:42.499Z,14.43
2022-10-14T19:29:12.737Z,14.35
2022-10-14T19:31:40.457Z,14.77
2022-10-14T19:34:13.277Z,14.18
2022-10-14T19:36:40.867Z,13.98
2022-10-14T19:39:10.043Z,15.02
2022-10-14T19:41:42.875Z,14.50
2022-10-14T19:44:13.275Z,14.88
2022-10-14T19:46:40.800Z,15.75
2022-10-14T19:49:13.257Z,15.55
2022-10-14T19:51:40.296Z,14.50
2022-10-14T19:54:11.793Z,14.65
2022-10-14T19:56:38.944Z,14.57
2022-10-14T19:59:05.781Z,16.13
2022-10-14T20:01:32.517Z,17.55
2022-10-14T20:04:00.905Z,16.00
2022-10-14T20:06:33.955Z,14.98
2022-10-14T20:09:00.794Z,16.67
2022-10-14T20:11:28.402Z,15.60
2022-10-14T20:13:54.939Z,15.38
2022-10-14T20:16:21.610Z,16.52
2022-10-14T20:18:48.348Z,16.42
2022-10-14T20:21:16.163Z,15.25
2022-10-14T20:23:43.030Z,15.05
2022-10-14T20:26:15.742Z,14.73
2022-10-14T20:28:42.493Z,14.23
2022-10-14T20:31:11.609Z,13.63
2022-10-14T20:33:38.661Z,13.88
2022-10-14T20:36:14.544Z,13.60
2022-10-14T20:38:42.392Z,12.70
2022-10-14T20:41:20.636Z,13.25
2022-10-14T20:43:48.351Z,13.82
2022-10-14T20:46:15.981Z,12.90
2022-10-14T20:48:46.543Z,13.90
2022-10-14T20:51:16.173Z,13.90
2022-10-14T20:53:42.876Z,13.43
2022-10-14T20:56:11.384Z,13.80
2022-10-14T20:58:38.730Z,13.45
2022-10-14T21:01:16.894Z,13.90
2022-10-14T21:03:47.943Z,13.65
2022-10-14T21:06:17.941Z,13.07
2022-10-14T21:08:44.973Z,14.20
2022-10-14T21:11:15.326Z,13.77
2022-10-14T21:13:52.092Z,13.82
2022-10-14T21:16:27.553Z,13.65
2022-10-14T21:18:57.879Z,14.50
2022-10-14T21:21:31.293Z,13.85
2022-10-14T21:23:59.077Z,13.90
2022-10-14T21:26:26.273Z,14.32
2022-10-14T21:28:53.254Z,14.35
2022-10-14T21:31:20.912Z,14.13
2022-10-14T21:33:48.822Z,14.07
2022-10-14T21:36:17.064Z,14.48
2022-10-14T21:38:44.298Z,14.85
2022-10-14T21:41:11.914Z,14.18
2022-10-14T21:43:39.482Z,14.48
2022-10-14T21:46:09.703Z,16.15
2022-10-14T21:48:40.001Z,14.77
2022-10-14T21:51:18.089Z,16.00
2022-10-14T21:53:46.218Z,16.58
2022-10-14T21:56:14.458Z,15.55
2022-10-14T21:58:41.654Z,15.50
2022-10-14T22:01:13.394Z,15.27
2022-10-14T22:03:41.008Z,15.35
2022-10-14T22:06:18.976Z,15.40
2022-10-14T22:08:48.725Z,15.13
2022-10-14T22:11:23.071Z,14.77
2022-10-14T22:13:51.182Z,13.35
2022-10-14T22:16:20.930Z,14.38
2022-10-14T22:18:50.652Z,13.82
2022-10-14T22:21:20.787Z,14.55
2022-10-14T22:23:48.950Z,14.07
2022-10-14T22:26:19.113Z,13.27
2022-10-14T22:28:46.141Z,14.45
2022-10-14T22:31:20.341Z,14.65
2022-10-14T22:33:49.680Z,15.18
2022-10-14T22:36:24.204Z,15.55
2022-10-14T22:38:53.404Z,14.93
2022-10-14T22:41:24.051Z,15.45
2022-10-14T22:43:55.659Z,16.00
2022-10-14T22:46:25.563Z,14.93
2022-10-14T22:48:58.216Z,14.80
2022-10-14T22:51:37.078Z,15.57
2022-10-14T22:54:04.356Z,15.30
2022-10-14T22:56:32.267Z,15.95
2022-10-14T22:59:07.225Z,16.45
2022-10-14T23:01:36.679Z,15.95
2022-10-14T23:04:04.291Z,16.83
2022-10-14T23:06:31.755Z,16.00
2022-10-14T23:09:00.737Z,16.75
2022-10-14T23:11:31.074Z,16.25
2022-10-14T23:14:00.217Z,17.25
2022-10-14T23:16:31.898Z,15.88
2022-10-14T23:18:59.138Z,16.08
2022-10-14T23:21:29.173Z,15.48
2022-10-14T23:23:58.188Z,16.33
2022-10-14T23:26:27.266Z,15.27
2022-10-14T23:28:56.847Z,15.73
2022-10-14T23:31:25.959Z,16.02
2022-10-14T23:33:53.520Z,15.48
2022-10-14T23:36:21.971Z,14.57
2022-10-14T23:38:50.033Z,16.00
2022-10-14T23:41:21.915Z,16.02
2022-10-14T23:43:49.618Z,15.52
2022-10-14T23:46:19.216Z,15.82
2022-10-14T23:48:51.549Z,16.95
2022-10-14T23:51:27.767Z,16.33
2022-10-14T23:53:54.438Z,15.75
2022-10-14T23:56:23.397Z,16.85
2022-10-14T23:58:52.406Z,16.80
